Time;durP1;ratioP1;P1;durP2;ratioP2;P2;SDS_P1;SDS_P2;PMS_P1;PMS_P2;Temp;Humidity;BMP_temperature;BMP_pressure;BME280_temperature;BME280_humidity;BME280_pressure;Samples;Min_cycle;Max_cycle;Signal;HPM_P1;HPM_P2
2019/10/19 00:00:05;;;;;;;5.15;4.6;;;;;;;10.81;98.74414;94915.37;;;;
2019/10/19 00:01:11;;;;;;;6.199999;4.55;;;;;;;10.82;99.48828;94908.09;;;;
2019/10/19 00:02:13;;;;;;;6.199999;4.55;;;;;;;10.82;99.48828;94908.09;;;;
2019/10/19 00:03:14;;;;;;;6.199999;4.55;;;;;;;10.82;99.48828;94908.09;;;;
2019/10/19 00:04:15;;;;;;;6.199999;4.55;;;;;;;10.82;99.48828;94908.09;;;;
2019/10/19 00:05:16;;;;;;;6.199999;4.55;;;;;;;10.82;99.48828;94908.09;;;;
2019/10/19 00:06:17;;;;;;;6.199999;4.55;;;;;;;10.82;99.48828;94908.09;;;;
2019/10/19 00:07:18;;;;;;;6.199999;4.55;;;;;;;10.82;99.48828;94908.09;;;;
2019/10/19 00:08:19;;;;;;;6.199999;4.55;;;;;;;10.82;99.48828;94908.09;;;;
2019/10/19 00:09:21;;;;;;;6.199999;4.55;;;;;;;10.82;99.48828;94908.09;;;;
2019/10/19 00:10:24;;;;;;;6.199999;4.55;;;;;;;10.82;99.48828;94908.09;;;;
2019/10/19 00:11:28;;;;;;;6.199999;4.55;;;;;;;10.82;99.48828;94908.09;;;;
2019/10/19 00:12:29;;;;;;;4.15;3.45;;;;;;;10.66;98.38086;94916.5;;;;
2019/10/19 00:13:30;;;;;;;4.15;3.45;;;;;;;10.66;98.38086;94916.5;;;;
2019/10/19 00:14:31;;;;;;;7.3;3.5;;;;;;;10.69;99.2373;94913.3;;;;
2019/10/19 00:15:32;;;;;;;7.3;3.5;;;;;;;10.69;99.2373;94913.3;;;;
2019/10/19 00:16:34;;;;;;;7.3;3.5;;;;;;;10.69;99.2373;94913.3;;;;
2019/10/19 00:17:35;;;;;;;5;3.5;;;;;;;10.76;99.58203;94922.19;;;;
2019/10/19 00:18:41;;;;;;;5;3.5;;;;;;;10.76;99.58203;94922.19;;;;
2019/10/19 00:19:53;;;;;;;5;3.5;;;;;;;10.76;99.58203;94922.19;;;;
2019/10/19 00:27:09;;;;;;;4.3;3.55;;;;;;;10.9;100;94919.85;;;;
2019/10/19 00:28:10;;;;;;;4.3;3.55;;;;;;;10.9;100;94919.85;;;;
2019/10/19 00:29:11;;;;;;;4.3;3.55;;;;;;;10.9;100;94919.85;;;;
2019/10/19 00:30:13;;;;;;;4.3;3.55;;;;;;;10.9;100;94919.85;;;;
2019/10/19 00:31:14;;;;;;;4.3;3.55;;;;;;;10.9;100;94919.85;;;;
2019/10/19 00:32:15;;;;;;;4.3;3.55;;;;;;;10.9;100;94919.85;;;;
2019/10/19 00:33:16;;;;;;;4.3;3.55;;;;;;;10.9;100;94919.85;;;;
2019/10/19 00:34:17;;;;;;;4.3;3.55;;;;;;;10.9;100;94919.85;;;;
2019/10/19 00:35:18;;;;;;;4.3;3.55;;;;;;;10.9;100;94919.85;;;;
2019/10/19 00:36:20;;;;;;;4.05;3.15;;;;;;;10.61;98.76953;94908.43;;;;
2019/10/19 00:37:21;;;;;;;4.05;3.15;;;;;;;10.61;98.76953;94908.43;;;;
2019/10/19 00:38:22;;;;;;;4.3;3.3;;;;;;;10.6;99.62012;94908.01;;;;
2019/10/19 00:39:23;;;;;;;4.3;3.3;;;;;;;10.6;99.62012;94908.01;;;;
2019/10/19 00:40:24;;;;;;;4.3;3.3;;;;;;;10.6;99.62012;94908.01;;;;
2019/10/19 00:41:25;;;;;;;4.15;3.4;;;;;;;10.66;99.99316;94906.22;;;;
2019/10/19 00:42:26;;;;;;;4.15;3.4;;;;;;;10.66;99.99316;94906.22;;;;
2019/10/19 00:43:27;;;;;;;4.15;3.4;;;;;;;10.66;99.99316;94906.22;;;;
2019/10/19 00:44:33;;;;;;;5.7;3.400001;;;;;;;10.71;100;94900.48;;;;
2019/10/19 00:45:34;;;;;;;5.7;3.400001;;;;;;;10.71;100;94900.48;;;;
2019/10/19 00:46:35;;;;;;;5.7;3.400001;;;;;;;10.71;100;94900.48;;;;
2019/10/19 00:47:37;;;;;;;5.7;3.400001;;;;;;;10.71;100;94900.48;;;;
2019/10/19 00:48:38;;;;;;;5.7;3.400001;;;;;;;10.71;100;94900.48;;;;
2019/10/19 00:49:40;;;;;;;5.7;3.400001;;;;;;;10.71;100;94900.48;;;;
2019/10/19 00:50:41;;;;;;;5.7;3.400001;;;;;;;10.71;100;94900.48;;;;
2019/10/19 00:51:43;;;;;;;5.7;3.400001;;;;;;;10.71;100;94900.48;;;;
2019/10/19 00:52:44;;;;;;;5.7;3.400001;;;;;;;10.71;100;94900.48;;;;
2019/10/19 00:53:47;;;;;;;5.7;3.400001;;;;;;;10.71;100;94900.48;;;;
2019/10/19 00:54:48;;;;;;;5.5;3.35;;;;;;;10.51;98.99316;94898.27;;;;
2019/10/19 00:55:50;;;;;;;5.5;3.35;;;;;;;10.51;98.99316;94898.27;;;;
2019/10/19 00:57:29;;;;;;;4.75;3.3;;;;;;;10.53;99.87012;94901.14;;;;
2019/10/19 01:00:19;;;;;;;4.75;3.3;;;;;;;10.53;99.87012;94901.14;;;;
2019/10/19 01:01:38;;;;;;;4.75;3.3;;;;;;;10.53;99.87012;94901.14;;;;
2019/10/19 01:03:58;;;;;;;4.75;3.3;;;;;;;10.53;99.87012;94901.14;;;;
2019/10/19 01:05:03;;;;;;;4.75;3.3;;;;;;;10.53;99.87012;94901.14;;;;
2019/10/19 01:06:04;;;;;;;4.75;3.3;;;;;;;10.53;99.87012;94901.14;;;;
2019/10/19 01:07:05;;;;;;;4.75;3.3;;;;;;;10.53;99.87012;94901.14;;;;
2019/10/19 01:08:06;;;;;;;4.9;3.15;;;;;;;10.42;98.86719;94887.17;;;;
2019/10/19 01:09:08;;;;;;;4.9;3.15;;;;;;;10.42;98.86719;94887.17;;;;
2019/10/19 01:10:14;;;;;;;5.3;3.05;;;;;;;10.46;99.78906;94882.93;;;;
2019/10/19 01:11:52;;;;;;;5.3;3.05;;;;;;;10.46;99.78906;94882.93;;;;
2019/10/19 01:12:56;;;;;;;5.3;3.05;;;;;;;10.46;99.78906;94882.93;;;;
2019/10/19 01:13:57;;;;;;;5.3;3.05;;;;;;;10.46;99.78906;94882.93;;;;
2019/10/19 01:14:58;;;;;;;5.3;3.05;;;;;;;10.46;99.78906;94882.93;;;;
2019/10/19 01:15:59;;;;;;;5.3;3.05;;;;;;;10.46;99.78906;94882.93;;;;
2019/10/19 01:17:02;;;;;;;5.3;3.05;;;;;;;10.46;99.78906;94882.93;;;;
2019/10/19 01:18:03;;;;;;;5.3;3.05;;;;;;;10.46;99.78906;94882.93;;;;
2019/10/19 01:19:09;;;;;;;5.3;3.05;;;;;;;10.46;99.78906;94882.93;;;;
2019/10/19 01:20:12;;;;;;;5.3;3.05;;;;;;;10.46;99.78906;94882.93;;;;
2019/10/19 01:25:17;;;;;;;3.9;2.900001;;;;;;;10.43;99.70801;94884.27;;;;
2019/10/19 01:26:19;;;;;;;3.9;2.900001;;;;;;;10.43;99.70801;94884.27;;;;
2019/10/19 01:27:26;;;;;;;3.9;2.900001;;;;;;;10.43;99.70801;94884.27;;;;
2019/10/19 01:28:28;;;;;;;3.9;2.900001;;;;;;;10.43;99.70801;94884.27;;;;
2019/10/19 01:29:29;;;;;;;3.9;2.900001;;;;;;;10.43;99.70801;94884.27;;;;
2019/10/19 01:30:30;;;;;;;3.9;2.900001;;;;;;;10.43;99.70801;94884.27;;;;
2019/10/19 01:31:31;;;;;;;3.9;2.900001;;;;;;;10.43;99.70801;94884.27;;;;
2019/10/19 01:32:33;;;;;;;3.9;2.900001;;;;;;;10.43;99.70801;94884.27;;;;
2019/10/19 01:33:34;;;;;;;3.9;2.900001;;;;;;;10.43;99.70801;94884.27;;;;
2019/10/19 01:34:35;;;;;;;4.8;2.65;;;;;;;10.43;98.76367;94882.9;;;;
2019/10/19 01:35:36;;;;;;;4.8;2.65;;;;;;;10.43;98.76367;94882.9;;;;
2019/10/19 01:36:37;;;;;;;4.8;2.65;;;;;;;10.43;98.76367;94882.9;;;;
2019/10/19 01:37:39;;;;;;;4.3;2.5;;;;;;;10.51;99.59863;94888.4;;;;
2019/10/19 01:38:40;;;;;;;4.3;2.5;;;;;;;10.51;99.59863;94888.4;;;;
2019/10/19 01:39:41;;;;;;;4.7;2.75;;;;;;;10.63;99.95313;94882.01;;;;
2019/10/19 01:40:42;;;;;;;4.7;2.75;;;;;;;10.63;99.95313;94882.01;;;;
2019/10/19 01:41:44;;;;;;;4.7;2.75;;;;;;;10.63;99.95313;94882.01;;;;
2019/10/19 01:42:45;;;;;;;3.3;2.9;;;;;;;10.74;100;94875.56;;;;
2019/10/19 01:43:47;;;;;;;3.3;2.9;;;;;;;10.74;100;94875.56;;;;
2019/10/19 01:44:48;;;;;;;3.3;2.9;;;;;;;10.74;100;94875.56;;;;
2019/10/19 01:45:49;;;;;;;3.3;2.9;;;;;;;10.74;100;94875.56;;;;
2019/10/19 01:46:51;;;;;;;3.3;2.9;;;;;;;10.74;100;94875.56;;;;
2019/10/19 01:47:52;;;;;;;3.3;2.9;;;;;;;10.74;100;94875.56;;;;
2019/10/19 01:48:53;;;;;;;3.3;2.9;;;;;;;10.74;100;94875.56;;;;
2019/10/19 01:49:54;;;;;;;3.3;2.9;;;;;;;10.74;100;94875.56;;;;
2019/10/19 01:50:56;;;;;;;3.3;2.9;;;;;;;10.74;100;94875.56;;;;
2019/10/19 01:51:57;;;;;;;3.3;2.9;;;;;;;10.74;100;94875.56;;;;
2019/10/19 01:52:58;;;;;;;4.85;2.6;;;;;;;10.77;98.78711;94863.87;;;;
2019/10/19 01:54:00;;;;;;;4.85;2.6;;;;;;;10.77;98.78711;94863.87;;;;
2019/10/19 01:55:01;;;;;;;4.85;2.6;;;;;;;10.77;98.78711;94863.87;;;;
2019/10/19 01:56:03;;;;;;;5.300001;2.6;;;;;;;10.84;99.49512;94875.73;;;;
2019/10/19 01:57:04;;;;;;;5.300001;2.6;;;;;;;10.84;99.49512;94875.73;;;;
2019/10/19 01:58:36;;;;;;;5.300001;2.6;;;;;;;10.84;99.49512;94875.73;;;;
2019/10/19 01:59:37;;;;;;;5.300001;2.6;;;;;;;10.84;99.49512;94875.73;;;;
2019/10/19 02:00:38;;;;;;;5.300001;2.6;;;;;;;10.84;99.49512;94875.73;;;;
2019/10/19 02:01:44;;;;;;;5.300001;2.6;;;;;;;10.84;99.49512;94875.73;;;;
2019/10/19 02:07:57;;;;;;;3.900001;2.900001;;;;;;;10.93;98.5166;94891.82;;;;
2019/10/19 02:08:58;;;;;;;4.6;3;;;;;;;11.02;99.30176;94887.21;;;;
2019/10/19 02:09:59;;;;;;;4.6;3;;;;;;;11.02;99.30176;94887.21;;;;
2019/10/19 02:11:01;;;;;;;4.6;3;;;;;;;11.02;99.30176;94887.21;;;;
2019/10/19 02:12:02;;;;;;;4.6;3;;;;;;;11.02;99.30176;94887.21;;;;
2019/10/19 02:13:03;;;;;;;4.6;3;;;;;;;11.02;99.30176;94887.21;;;;
2019/10/19 02:14:04;;;;;;;4.6;3;;;;;;;11.02;99.30176;94887.21;;;;
2019/10/19 02:15:06;;;;;;;4.6;3;;;;;;;11.02;99.30176;94887.21;;;;
2019/10/19 02:16:07;;;;;;;4.6;3;;;;;;;11.02;99.30176;94887.21;;;;
2019/10/19 02:17:08;;;;;;;4.6;3;;;;;;;11.02;99.30176;94887.21;;;;
2019/10/19 02:18:09;;;;;;;4.6;3;;;;;;;11.02;99.30176;94887.21;;;;
2019/10/19 02:19:12;;;;;;;3.85;3.3;;;;;;;11.06;98.38477;94891.44;;;;
2019/10/19 02:20:15;;;;;;;3.85;3.3;;;;;;;11.06;98.38477;94891.44;;;;
2019/10/19 02:21:17;;;;;;;3.85;3.3;;;;;;;11.06;98.38477;94891.44;;;;
2019/10/19 02:22:18;;;;;;;3.85;3.3;;;;;;;11.06;98.38477;94891.44;;;;
2019/10/19 02:23:19;;;;;;;3.85;3.3;;;;;;;11.06;98.38477;94891.44;;;;
2019/10/19 02:24:21;;;;;;;3.85;3.3;;;;;;;11.06;98.38477;94891.44;;;;
2019/10/19 02:25:22;;;;;;;3.85;3.3;;;;;;;11.06;98.38477;94891.44;;;;
2019/10/19 02:26:23;;;;;;;3.85;3.3;;;;;;;11.06;98.38477;94891.44;;;;
2019/10/19 02:27:24;;;;;;;3.85;3.3;;;;;;;11.06;98.38477;94891.44;;;;
2019/10/19 02:28:25;;;;;;;3.85;3.3;;;;;;;11.06;98.38477;94891.44;;;;
2019/10/19 02:29:27;;;;;;;3.85;3.3;;;;;;;11.06;98.38477;94891.44;;;;
2019/10/19 02:30:28;;;;;;;4;3.6;;;;;;;11.1;98.12695;94896.37;;;;
2019/10/19 02:31:29;;;;;;;4;3.6;;;;;;;11.1;98.12695;94896.37;;;;
2019/10/19 02:32:30;;;;;;;4;3.6;;;;;;;11.1;98.12695;94896.37;;;;
2019/10/19 02:33:31;;;;;;;4;3.6;;;;;;;11.1;98.12695;94896.37;;;;
2019/10/19 02:34:32;;;;;;;4;3.6;;;;;;;11.1;98.12695;94896.37;;;;
2019/10/19 02:35:34;;;;;;;4;3.6;;;;;;;11.1;98.12695;94896.37;;;;
2019/10/19 02:36:35;;;;;;;4;3.6;;;;;;;11.1;98.12695;94896.37;;;;
2019/10/19 02:37:36;;;;;;;4;3.6;;;;;;;11.1;98.12695;94896.37;;;;
2019/10/19 02:38:37;;;;;;;4;3.6;;;;;;;11.1;98.12695;94896.37;;;;
2019/10/19 02:39:38;;;;;;;4;3.6;;;;;;;11.1;98.12695;94896.37;;;;
2019/10/19 02:40:39;;;;;;;4.400001;3.6;;;;;;;11.08;97.79297;94902.97;;;;
2019/10/19 02:41:41;;;;;;;4.400001;3.6;;;;;;;11.08;97.79297;94902.97;;;;
2019/10/19 02:42:45;;;;;;;4.400001;3.6;;;;;;;11.08;97.79297;94902.97;;;;
2019/10/19 02:43:47;;;;;;;4.400001;3.6;;;;;;;11.08;97.79297;94902.97;;;;
2019/10/19 02:44:48;;;;;;;4.400001;3.6;;;;;;;11.08;97.79297;94902.97;;;;
2019/10/19 02:45:50;;;;;;;4.400001;3.6;;;;;;;11.08;97.79297;94902.97;;;;
2019/10/19 02:46:58;;;;;;;4.400001;3.6;;;;;;;11.08;97.79297;94902.97;;;;
2019/10/19 02:48:07;;;;;;;4.400001;3.6;;;;;;;11.08;97.79297;94902.97;;;;
2019/10/19 02:49:09;;;;;;;4.400001;3.6;;;;;;;11.08;97.79297;94902.97;;;;
2019/10/19 02:50:12;;;;;;;4.400001;3.6;;;;;;;11.08;97.79297;94902.97;;;;
2019/10/19 02:51:13;;;;;;;4.15;3.65;;;;;;;11.12;97.67578;94915.72;;;;
2019/10/19 02:52:17;;;;;;;4.15;3.65;;;;;;;11.12;97.67578;94915.72;;;;
2019/10/19 02:53:24;;;;;;;4.15;3.65;;;;;;;11.12;97.67578;94915.72;;;;
2019/10/19 02:54:35;;;;;;;4.15;3.65;;;;;;;11.12;97.67578;94915.72;;;;
2019/10/19 02:55:36;;;;;;;4.15;3.65;;;;;;;11.12;97.67578;94915.72;;;;
2019/10/19 02:56:47;;;;;;;4.15;3.65;;;;;;;11.12;97.67578;94915.72;;;;
2019/10/19 02:57:57;;;;;;;4.15;3.65;;;;;;;11.12;97.67578;94915.72;;;;
2019/10/19 02:59:06;;;;;;;4.15;3.65;;;;;;;11.12;97.67578;94915.72;;;;
2019/10/19 03:01:05;;;;;;;4.15;3.65;;;;;;;11.12;97.67578;94915.72;;;;
2019/10/19 03:02:06;;;;;;;5.1;3.65;;;;;;;11.18;97.46484;94916.09;;;;
2019/10/19 03:03:07;;;;;;;5.1;3.65;;;;;;;11.18;97.46484;94916.09;;;;
2019/10/19 03:04:10;;;;;;;5.1;3.65;;;;;;;11.18;97.46484;94916.09;;;;
2019/10/19 03:05:18;;;;;;;6.399999;3.85;;;;;;;11.26;98.59961;94914.29;;;;
2019/10/19 03:06:20;;;;;;;6.399999;3.85;;;;;;;11.26;98.59961;94914.29;;;;
2019/10/19 03:07:23;;;;;;;6.399999;3.85;;;;;;;11.26;98.59961;94914.29;;;;
2019/10/19 03:08:31;;;;;;;6.399999;3.85;;;;;;;11.26;98.59961;94914.29;;;;
2019/10/19 03:09:32;;;;;;;6.399999;3.85;;;;;;;11.26;98.59961;94914.29;;;;
2019/10/19 03:10:34;;;;;;;6.399999;3.85;;;;;;;11.26;98.59961;94914.29;;;;
2019/10/19 03:11:36;;;;;;;6.399999;3.85;;;;;;;11.26;98.59961;94914.29;;;;
2019/10/19 03:12:37;;;;;;;6.399999;3.85;;;;;;;11.26;98.59961;94914.29;;;;
2019/10/19 03:13:39;;;;;;;6.399999;3.85;;;;;;;11.26;98.59961;94914.29;;;;
2019/10/19 03:14:40;;;;;;;6.399999;3.85;;;;;;;11.26;98.59961;94914.29;;;;
2019/10/19 03:15:41;;;;;;;5.400001;3.55;;;;;;;11.3;97.8418;94889.9;;;;
2019/10/19 03:16:42;;;;;;;5.400001;3.55;;;;;;;11.3;97.8418;94889.9;;;;
2019/10/19 03:17:43;;;;;;;4.3;3.4;;;;;;;11.34;98.86133;94876.15;;;;
2019/10/19 03:18:45;;;;;;;4.3;3.4;;;;;;;11.34;98.86133;94876.15;;;;
2019/10/19 03:19:46;;;;;;;4.3;3.4;;;;;;;11.34;98.86133;94876.15;;;;
2019/10/19 03:20:47;;;;;;;4.3;3.4;;;;;;;11.34;98.86133;94876.15;;;;
2019/10/19 03:21:48;;;;;;;4.3;3.4;;;;;;;11.34;98.86133;94876.15;;;;
2019/10/19 03:22:49;;;;;;;4.3;3.4;;;;;;;11.34;98.86133;94876.15;;;;
2019/10/19 03:23:51;;;;;;;4.3;3.4;;;;;;;11.34;98.86133;94876.15;;;;
2019/10/19 03:24:52;;;;;;;4.3;3.4;;;;;;;11.34;98.86133;94876.15;;;;
2019/10/19 03:25:53;;;;;;;4.3;3.4;;;;;;;11.34;98.86133;94876.15;;;;
2019/10/19 03:26:57;;;;;;;4.3;3.4;;;;;;;11.34;98.86133;94876.15;;;;
2019/10/19 03:28:05;;;;;;;4.3;3.4;;;;;;;11.34;98.86133;94876.15;;;;
2019/10/19 03:29:07;;;;;;;5.349999;3.8;;;;;;;11.22;98.04785;94853.73;;;;
2019/10/19 03:31:07;;;;;;;5.349999;3.8;;;;;;;11.22;98.04785;94853.73;;;;
2019/10/19 03:33:15;;;;;;;4.699999;3.65;;;;;;;11.24;99.08496;94851.7;;;;
2019/10/19 03:34:24;;;;;;;4.699999;3.65;;;;;;;11.24;99.08496;94851.7;;;;
2019/10/19 03:35:31;;;;;;;4.699999;3.65;;;;;;;11.24;99.08496;94851.7;;;;
2019/10/19 03:36:34;;;;;;;4.699999;3.65;;;;;;;11.24;99.08496;94851.7;;;;
2019/10/19 03:37:36;;;;;;;4.699999;3.65;;;;;;;11.24;99.08496;94851.7;;;;
2019/10/19 03:38:40;;;;;;;4.699999;3.65;;;;;;;11.24;99.08496;94851.7;;;;
2019/10/19 03:39:41;;;;;;;4.699999;3.65;;;;;;;11.24;99.08496;94851.7;;;;
2019/10/19 03:40:44;;;;;;;4.699999;3.65;;;;;;;11.24;99.08496;94851.7;;;;
2019/10/19 03:41:47;;;;;;;3.8;3.5;;;;;;;11.05;98.35059;94843.48;;;;
2019/10/19 03:42:48;;;;;;;3.8;3.5;;;;;;;11.05;98.35059;94843.48;;;;
2019/10/19 03:43:51;;;;;;;3.8;3.5;;;;;;;11.05;98.35059;94843.48;;;;
2019/10/19 03:44:54;;;;;;;4.25;3.65;;;;;;;11.07;99.4502;94843.22;;;;
2019/10/19 03:45:58;;;;;;;4.25;3.65;;;;;;;11.07;99.4502;94843.22;;;;
2019/10/19 03:47:00;;;;;;;4.25;3.65;;;;;;;11.07;99.4502;94843.22;;;;
2019/10/19 03:48:02;;;;;;;4.25;3.65;;;;;;;11.07;99.4502;94843.22;;;;
2019/10/19 03:49:03;;;;;;;4.25;3.65;;;;;;;11.07;99.4502;94843.22;;;;
2019/10/19 03:50:04;;;;;;;4.25;3.65;;;;;;;11.07;99.4502;94843.22;;;;
2019/10/19 03:51:06;;;;;;;4.25;3.65;;;;;;;11.07;99.4502;94843.22;;;;
2019/10/19 03:52:08;;;;;;;4.25;3.65;;;;;;;11.07;99.4502;94843.22;;;;
2019/10/19 03:53:09;;;;;;;4.25;3.65;;;;;;;11.07;99.4502;94843.22;;;;
2019/10/19 03:54:11;;;;;;;4.25;3.65;;;;;;;11.07;99.4502;94843.22;;;;
2019/10/19 03:55:12;;;;;;;4.25;3.85;;;;;;;10.87;98.69336;94843.34;;;;
2019/10/19 03:56:13;;;;;;;4.25;3.85;;;;;;;10.87;98.69336;94843.34;;;;
2019/10/19 03:57:14;;;;;;;4.25;3.85;;;;;;;10.87;98.69336;94843.34;;;;
2019/10/19 03:58:15;;;;;;;4.25;3.85;;;;;;;10.87;98.69336;94843.34;;;;
2019/10/19 03:59:16;;;;;;;4.25;3.85;;;;;;;10.87;98.69336;94843.34;;;;
2019/10/19 04:00:17;;;;;;;4.25;3.85;;;;;;;10.87;98.69336;94843.34;;;;
2019/10/19 04:01:21;;;;;;;4.25;3.85;;;;;;;10.87;98.69336;94843.34;;;;
2019/10/19 04:02:23;;;;;;;4.25;3.85;;;;;;;10.87;98.69336;94843.34;;;;
2019/10/19 04:03:24;;;;;;;4.25;3.85;;;;;;;10.87;98.69336;94843.34;;;;
2019/10/19 04:04:25;;;;;;;4.25;3.85;;;;;;;10.87;98.69336;94843.34;;;;
2019/10/19 04:05:26;;;;;;;5.35;3.85;;;;;;;10.66;98.55957;94831.97;;;;
2019/10/19 04:06:27;;;;;;;5.35;3.85;;;;;;;10.66;98.55957;94831.97;;;;
2019/10/19 04:07:29;;;;;;;5.35;3.85;;;;;;;10.66;98.55957;94831.97;;;;
2019/10/19 04:08:30;;;;;;;5.35;3.85;;;;;;;10.66;98.55957;94831.97;;;;
2019/10/19 04:09:31;;;;;;;5.35;3.85;;;;;;;10.66;98.55957;94831.97;;;;
2019/10/19 04:10:32;;;;;;;5.35;3.85;;;;;;;10.66;98.55957;94831.97;;;;
2019/10/19 04:11:33;;;;;;;5.35;3.85;;;;;;;10.66;98.55957;94831.97;;;;
2019/10/19 04:12:34;;;;;;;5.35;3.85;;;;;;;10.66;98.55957;94831.97;;;;
2019/10/19 04:13:36;;;;;;;5.35;3.85;;;;;;;10.66;98.55957;94831.97;;;;
2019/10/19 04:14:37;;;;;;;5.35;3.85;;;;;;;10.66;98.55957;94831.97;;;;
2019/10/19 04:15:38;;;;;;;5.35;3.85;;;;;;;10.66;98.55957;94831.97;;;;
2019/10/19 04:16:46;;;;;;;5.849999;4.199999;;;;;;;10.31;98.5127;94823.72;;;;
2019/10/19 04:17:48;;;;;;;5.849999;4.199999;;;;;;;10.31;98.5127;94823.72;;;;
2019/10/19 04:18:49;;;;;;;4.699999;4.1;;;;;;;10.28;99.79102;94818.82;;;;
2019/10/19 04:19:50;;;;;;;4.699999;4.1;;;;;;;10.28;99.79102;94818.82;;;;
2019/10/19 04:20:51;;;;;;;4.699999;4.1;;;;;;;10.28;99.79102;94818.82;;;;
2019/10/19 04:21:52;;;;;;;4.699999;4.1;;;;;;;10.28;99.79102;94818.82;;;;
2019/10/19 04:22:54;;;;;;;4.699999;4.1;;;;;;;10.28;99.79102;94818.82;;;;
2019/10/19 04:23:55;;;;;;;4.699999;4.1;;;;;;;10.28;99.79102;94818.82;;;;
2019/10/19 04:24:56;;;;;;;4.699999;4.1;;;;;;;10.28;99.79102;94818.82;;;;
2019/10/19 04:26:05;;;;;;;4.699999;4.1;;;;;;;10.28;99.79102;94818.82;;;;
2019/10/19 04:27:29;;;;;;;4.699999;4.1;;;;;;;10.28;99.79102;94818.82;;;;
2019/10/19 04:28:36;;;;;;;4.699999;4.1;;;;;;;10.28;99.79102;94818.82;;;;
2019/10/19 04:29:42;;;;;;;4.900001;4.400001;;;;;;;10.01;99.35742;94791.64;;;;
2019/10/19 04:30:47;;;;;;;4.900001;4.400001;;;;;;;10.01;99.35742;94791.64;;;;
2019/10/19 04:31:48;;;;;;;4.900001;4.400001;;;;;;;10.01;99.35742;94791.64;;;;
2019/10/19 04:32:49;;;;;;;4.900001;4.400001;;;;;;;10.01;99.35742;94791.64;;;;
2019/10/19 04:33:51;;;;;;;4.900001;4.400001;;;;;;;10.01;99.35742;94791.64;;;;
2019/10/19 04:34:52;;;;;;;4.900001;4.400001;;;;;;;10.01;99.35742;94791.64;;;;
2019/10/19 04:35:53;;;;;;;4.900001;4.400001;;;;;;;10.01;99.35742;94791.64;;;;
2019/10/19 04:36:54;;;;;;;4.900001;4.400001;;;;;;;10.01;99.35742;94791.64;;;;
2019/10/19 04:37:55;;;;;;;4.900001;4.400001;;;;;;;10.01;99.35742;94791.64;;;;
2019/10/19 04:38:57;;;;;;;4.900001;4.400001;;;;;;;10.01;99.35742;94791.64;;;;
2019/10/19 04:39:58;;;;;;;6;4.75;;;;;;;9.76;99.39746;94793.91;;;;
2019/10/19 04:40:59;;;;;;;6;4.75;;;;;;;9.76;99.39746;94793.91;;;;
2019/10/19 04:42:00;;;;;;;6;4.75;;;;;;;9.76;99.39746;94793.91;;;;
2019/10/19 04:43:01;;;;;;;6;4.75;;;;;;;9.76;99.39746;94793.91;;;;
2019/10/19 04:44:02;;;;;;;6;4.75;;;;;;;9.76;99.39746;94793.91;;;;
2019/10/19 04:45:04;;;;;;;6;4.75;;;;;;;9.76;99.39746;94793.91;;;;
2019/10/19 04:46:07;;;;;;;6;4.75;;;;;;;9.76;99.39746;94793.91;;;;
2019/10/19 04:47:08;;;;;;;6;4.75;;;;;;;9.76;99.39746;94793.91;;;;
2019/10/19 04:48:09;;;;;;;6;4.75;;;;;;;9.76;99.39746;94793.91;;;;
2019/10/19 04:49:11;;;;;;;6;4.75;;;;;;;9.76;99.39746;94793.91;;;;
2019/10/19 04:50:12;;;;;;;6;4.75;;;;;;;9.76;99.39746;94793.91;;;;
2019/10/19 04:51:13;;;;;;;6.15;4.85;;;;;;;9.47;99.51074;94795.9;;;;
2019/10/19 04:52:14;;;;;;;6.15;4.85;;;;;;;9.47;99.51074;94795.9;;;;
2019/10/19 04:53:15;;;;;;;6.15;4.85;;;;;;;9.47;99.51074;94795.9;;;;
2019/10/19 04:54:16;;;;;;;6.15;4.85;;;;;;;9.47;99.51074;94795.9;;;;
2019/10/19 04:55:17;;;;;;;6.15;4.85;;;;;;;9.47;99.51074;94795.9;;;;
2019/10/19 04:56:19;;;;;;;6.15;4.85;;;;;;;9.47;99.51074;94795.9;;;;
2019/10/19 04:57:20;;;;;;;6.15;4.85;;;;;;;9.47;99.51074;94795.9;;;;
2019/10/19 04:58:21;;;;;;;6.15;4.85;;;;;;;9.47;99.51074;94795.9;;;;
2019/10/19 04:59:22;;;;;;;6.15;4.85;;;;;;;9.47;99.51074;94795.9;;;;
2019/10/19 05:00:23;;;;;;;6.15;4.85;;;;;;;9.47;99.51074;94795.9;;;;
2019/10/19 05:01:24;;;;;;;6.300001;4.95;;;;;;;9.28;99.61621;94787.73;;;;
2019/10/19 05:02:25;;;;;;;6.300001;4.95;;;;;;;9.28;99.61621;94787.73;;;;
2019/10/19 05:03:26;;;;;;;6.300001;4.95;;;;;;;9.28;99.61621;94787.73;;;;
2019/10/19 05:04:28;;;;;;;6.300001;4.95;;;;;;;9.28;99.61621;94787.73;;;;
2019/10/19 05:05:29;;;;;;;6.300001;4.95;;;;;;;9.28;99.61621;94787.73;;;;
2019/10/19 05:06:30;;;;;;;6.300001;4.95;;;;;;;9.28;99.61621;94787.73;;;;
2019/10/19 05:07:31;;;;;;;6.300001;4.95;;;;;;;9.28;99.61621;94787.73;;;;
2019/10/19 05:08:32;;;;;;;6.300001;4.95;;;;;;;9.28;99.61621;94787.73;;;;
2019/10/19 05:09:33;;;;;;;6.300001;4.95;;;;;;;9.28;99.61621;94787.73;;;;
2019/10/19 05:10:34;;;;;;;6.300001;4.95;;;;;;;9.28;99.61621;94787.73;;;;
2019/10/19 05:11:35;;;;;;;5.400001;4.450001;;;;;;;9.08;99.63281;94785.05;;;;
2019/10/19 05:12:36;;;;;;;5.400001;4.450001;;;;;;;9.08;99.63281;94785.05;;;;
2019/10/19 05:13:38;;;;;;;5.400001;4.450001;;;;;;;9.08;99.63281;94785.05;;;;
2019/10/19 05:14:39;;;;;;;5.400001;4.450001;;;;;;;9.08;99.63281;94785.05;;;;
2019/10/19 05:15:40;;;;;;;5.400001;4.450001;;;;;;;9.08;99.63281;94785.05;;;;
2019/10/19 05:16:41;;;;;;;5.400001;4.450001;;;;;;;9.08;99.63281;94785.05;;;;
2019/10/19 05:17:42;;;;;;;5.400001;4.450001;;;;;;;9.08;99.63281;94785.05;;;;
2019/10/19 05:18:43;;;;;;;5.400001;4.450001;;;;;;;9.08;99.63281;94785.05;;;;
2019/10/19 05:19:45;;;;;;;5.400001;4.450001;;;;;;;9.08;99.63281;94785.05;;;;
2019/10/19 05:20:46;;;;;;;5.400001;4.450001;;;;;;;9.08;99.63281;94785.05;;;;
2019/10/19 05:21:47;;;;;;;5.400001;4.450001;;;;;;;9.08;99.63281;94785.05;;;;
2019/10/19 05:22:48;;;;;;;5.600001;4.65;;;;;;;8.99;99.64551;94786.47;;;;
2019/10/19 05:23:49;;;;;;;5.600001;4.65;;;;;;;8.99;99.64551;94786.47;;;;
2019/10/19 05:24:50;;;;;;;5.600001;4.65;;;;;;;8.99;99.64551;94786.47;;;;
2019/10/19 05:25:51;;;;;;;5.600001;4.65;;;;;;;8.99;99.64551;94786.47;;;;
2019/10/19 05:26:52;;;;;;;5.600001;4.65;;;;;;;8.99;99.64551;94786.47;;;;
2019/10/19 05:27:54;;;;;;;5.600001;4.65;;;;;;;8.99;99.64551;94786.47;;;;
2019/10/19 05:28:55;;;;;;;5.600001;4.65;;;;;;;8.99;99.64551;94786.47;;;;
2019/10/19 05:29:56;;;;;;;5.600001;4.65;;;;;;;8.99;99.64551;94786.47;;;;
2019/10/19 05:30:57;;;;;;;5.600001;4.65;;;;;;;8.99;99.64551;94786.47;;;;
2019/10/19 05:31:58;;;;;;;5.600001;4.65;;;;;;;8.99;99.64551;94786.47;;;;
2019/10/19 05:32:59;;;;;;;4.95;4.450001;;;;;;;8.76;99.59375;94781.56;;;;
2019/10/19 05:34:00;;;;;;;4.95;4.450001;;;;;;;8.76;99.59375;94781.56;;;;
2019/10/19 05:35:02;;;;;;;4.95;4.450001;;;;;;;8.76;99.59375;94781.56;;;;
2019/10/19 05:36:03;;;;;;;4.95;4.450001;;;;;;;8.76;99.59375;94781.56;;;;
2019/10/19 05:37:04;;;;;;;4.95;4.450001;;;;;;;8.76;99.59375;94781.56;;;;
2019/10/19 05:38:05;;;;;;;4.95;4.450001;;;;;;;8.76;99.59375;94781.56;;;;
2019/10/19 05:39:06;;;;;;;4.95;4.450001;;;;;;;8.76;99.59375;94781.56;;;;
2019/10/19 05:40:08;;;;;;;4.95;4.450001;;;;;;;8.76;99.59375;94781.56;;;;
2019/10/19 05:41:09;;;;;;;4.95;4.450001;;;;;;;8.76;99.59375;94781.56;;;;
2019/10/19 05:42:10;;;;;;;4.95;4.450001;;;;;;;8.76;99.59375;94781.56;;;;
2019/10/19 05:43:11;;;;;;;4.95;4.450001;;;;;;;8.76;99.59375;94781.56;;;;
2019/10/19 05:44:14;;;;;;;5.5;4.4;;;;;;;8.65;99.75586;94780.63;;;;
2019/10/19 05:45:15;;;;;;;5.5;4.4;;;;;;;8.65;99.75586;94780.63;;;;
2019/10/19 05:46:16;;;;;;;5.5;4.4;;;;;;;8.65;99.75586;94780.63;;;;
2019/10/19 05:52:28;;;;;;;5.5;4.4;;;;;;;8.65;99.75586;94780.63;;;;
2019/10/19 05:53:30;;;;;;;5.5;4.4;;;;;;;8.65;99.75586;94780.63;;;;
2019/10/19 05:54:31;;;;;;;6.7;5.1;;;;;;;8.55;99.66211;94757.93;;;;
2019/10/19 05:55:32;;;;;;;6.7;5.1;;;;;;;8.55;99.66211;94757.93;;;;
2019/10/19 05:56:33;;;;;;;6.7;5.1;;;;;;;8.55;99.66211;94757.93;;;;
2019/10/19 05:57:34;;;;;;;6.7;5.1;;;;;;;8.55;99.66211;94757.93;;;;
2019/10/19 05:58:36;;;;;;;6.7;5.1;;;;;;;8.55;99.66211;94757.93;;;;
2019/10/19 05:59:37;;;;;;;6.7;5.1;;;;;;;8.55;99.66211;94757.93;;;;
2019/10/19 06:00:38;;;;;;;6.7;5.1;;;;;;;8.55;99.66211;94757.93;;;;
2019/10/19 06:01:39;;;;;;;6.7;5.1;;;;;;;8.55;99.66211;94757.93;;;;
2019/10/19 06:02:40;;;;;;;6.7;5.1;;;;;;;8.55;99.66211;94757.93;;;;
2019/10/19 06:03:41;;;;;;;6.7;5.1;;;;;;;8.55;99.66211;94757.93;;;;
2019/10/19 06:04:42;;;;;;;6.5;5.849999;;;;;;;8.76;99.77344;94732.56;;;;
2019/10/19 06:05:43;;;;;;;6.5;5.849999;;;;;;;8.76;99.77344;94732.56;;;;
2019/10/19 06:06:45;;;;;;;6.5;5.849999;;;;;;;8.76;99.77344;94732.56;;;;
2019/10/19 06:07:46;;;;;;;6.5;5.849999;;;;;;;8.76;99.77344;94732.56;;;;
2019/10/19 06:08:47;;;;;;;6.5;5.849999;;;;;;;8.76;99.77344;94732.56;;;;
2019/10/19 06:09:48;;;;;;;6.5;5.849999;;;;;;;8.76;99.77344;94732.56;;;;
2019/10/19 06:10:49;;;;;;;6.5;5.849999;;;;;;;8.76;99.77344;94732.56;;;;
2019/10/19 06:11:50;;;;;;;6.5;5.849999;;;;;;;8.76;99.77344;94732.56;;;;
2019/10/19 06:12:51;;;;;;;6.5;5.849999;;;;;;;8.76;99.77344;94732.56;;;;
2019/10/19 06:13:52;;;;;;;6.5;5.849999;;;;;;;8.76;99.77344;94732.56;;;;
2019/10/19 06:14:53;;;;;;;6.5;5.849999;;;;;;;8.76;99.77344;94732.56;;;;
2019/10/19 06:15:55;;;;;;;8.2;6.550001;;;;;;;9.16;99.50391;94729.03;;;;
2019/10/19 06:16:56;;;;;;;8.2;6.550001;;;;;;;9.16;99.50391;94729.03;;;;
2019/10/19 06:17:57;;;;;;;8.2;6.550001;;;;;;;9.16;99.50391;94729.03;;;;